Time;durP1;ratioP1;P1;durP2;ratioP2;P2;SDS_P1;SDS_P2;PMS_P1;PMS_P2;Temp;Humidity;BMP_temperature;BMP_pressure;BME280_temperature;BME280_humidity;BME280_pressure;Samples;Min_cycle;Max_cycle;Signal;HPM_P1;HPM_P2
2021/09/26 00:00:54;;;;;;;19.10;9.37;;;18.80;95.50;;;;;;4994399;28;20190;-81
2021/09/26 00:03:20;;;;;;;25.13;12.07;;;18.80;95.50;;;;;;4993794;28;20185;-81
2021/09/26 00:05:45;;;;;;;18.27;10.00;;;18.80;96.00;;;;;;4993981;28;20458;-81
2021/09/26 00:08:11;;;;;;;16.53;10.30;;;18.80;96.00;;;;;;4994281;28;20254;-81
2021/09/26 00:10:37;;;;;;;19.80;10.77;;;18.70;96.40;;;;;;4994532;28;20171;-81
2021/09/26 00:13:04;;;;;;;20.37;9.80;;;18.70;96.40;;;;;;4994734;28;20410;-81
2021/09/26 00:15:30;;;;;;;16.13;10.52;;;18.70;96.70;;;;;;4994387;28;20430;-81
2021/09/26 00:17:56;;;;;;;16.85;9.80;;;18.70;97.00;;;;;;4994297;28;20175;-80
2021/09/26 00:20:22;;;;;;;17.87;10.60;;;18.60;97.10;;;;;;4994241;28;20536;-81
2021/09/26 00:22:48;;;;;;;19.35;9.35;;;18.60;97.10;;;;;;4993965;28;20202;-81
2021/09/26 00:25:15;;;;;;;18.80;9.37;;;18.70;97.00;;;;;;4993428;28;20569;-81
2021/09/26 00:27:41;;;;;;;29.83;10.32;;;18.70;96.80;;;;;;4996660;28;20930;-81
2021/09/26 00:30:09;;;;;;;17.73;10.50;;;18.70;97.00;;;;;;4999006;28;20177;-81
2021/09/26 00:32:35;;;;;;;18.13;9.80;;;18.60;97.10;;;;;;4998942;28;20407;-81
2021/09/26 00:35:02;;;;;;;19.20;10.93;;;18.70;97.10;;;;;;4999178;28;20197;-81
2021/09/26 00:37:27;;;;;;;24.90;10.02;;;18.60;97.10;;;;;;5000019;28;20488;-82
2021/09/26 00:39:53;;;;;;;17.80;10.33;;;18.50;97.20;;;;;;5000330;28;20175;-82
2021/09/26 00:42:19;;;;;;;17.13;10.43;;;18.50;97.30;;;;;;5000246;28;20179;-82
2021/09/26 00:44:45;;;;;;;16.90;9.47;;;18.50;97.30;;;;;;4999157;28;20211;-82
2021/09/26 00:47:10;;;;;;;15.60;9.60;;;18.50;97.20;;;;;;5000134;28;20484;-81
2021/09/26 00:49:36;;;;;;;17.40;10.63;;;18.50;97.20;;;;;;4997912;28;20555;-81
2021/09/26 00:52:02;;;;;;;21.03;9.83;;;18.50;97.20;;;;;;4998289;28;20426;-81
2021/09/26 00:54:28;;;;;;;26.02;10.35;;;18.50;97.20;;;;;;4997627;28;20206;-82
2021/09/26 00:56:56;;;;;;;16.27;8.93;;;18.50;97.20;;;;;;4997989;28;20278;-81
2021/09/26 00:59:22;;;;;;;17.40;8.40;;;18.50;97.20;;;;;;4997245;28;20333;-81
2021/09/26 01:01:48;;;;;;;19.52;9.73;;;18.50;97.20;;;;;;4997919;28;20282;-81
2021/09/26 01:04:16;;;;;;;18.60;10.23;;;18.50;97.30;;;;;;4997034;28;20179;-81
2021/09/26 01:06:59;;;;;;;16.25;9.15;;;18.50;97.40;;;;;;4997553;28;20191;-81
2021/09/26 01:09:44;;;;;;;16.80;7.93;;;18.60;97.10;;;;;;4997442;28;20218;-81
2021/09/26 01:12:29;;;;;;;17.23;8.98;;;18.50;97.40;;;;;;4999239;28;20178;-81
2021/09/26 01:15:42;;;;;;;17.67;9.75;;;18.50;97.60;;;;;;4998703;28;20175;-81
2021/09/26 01:18:20;;;;;;;20.98;9.10;;;18.60;97.20;;;;;;4983607;28;20187;-81
2021/09/26 01:20:45;;;;;;;17.52;8.90;;;18.60;97.40;;;;;;4997030;28;20163;-82
2021/09/26 01:23:20;;;;;;;15.97;9.40;;;18.60;97.30;;;;;;4998046;28;20175;-82
2021/09/26 01:26:15;;;;;;;15.02;9.32;;;18.60;97.20;;;;;;4997412;28;20213;-81
2021/09/26 01:29:02;;;;;;;15.90;8.73;;;18.70;97.10;;;;;;4996909;28;20233;-82
2021/09/26 01:31:34;;;;;;;17.85;8.95;;;18.70;97.20;;;;;;5000592;28;20659;-82
2021/09/26 01:34:08;;;;;;;20.60;8.93;;;18.70;97.00;;;;;;4998402;28;20686;-81
2021/09/26 01:36:40;;;;;;;14.90;8.73;;;18.70;97.00;;;;;;4996780;28;20210;-82
2021/09/26 01:39:21;;;;;;;14.40;8.18;;;18.70;96.90;;;;;;4995657;28;20171;-81
2021/09/26 01:42:01;;;;;;;20.10;8.32;;;18.80;96.80;;;;;;4995711;28;20651;-82
2021/09/26 01:44:36;;;;;;;17.33;9.27;;;18.80;96.70;;;;;;4996194;28;20584;-82
2021/09/26 01:47:05;;;;;;;16.48;7.72;;;18.80;96.60;;;;;;4996536;28;20195;-82
2021/09/26 01:49:40;;;;;;;14.57;8.93;;;18.70;96.90;;;;;;4996101;28;20510;-82
2021/09/26 01:52:16;;;;;;;20.30;8.75;;;18.70;96.90;;;;;;4996160;28;20249;-81
2021/09/26 01:54:42;;;;;;;21.02;9.10;;;18.70;97.00;;;;;;4995268;28;20216;-82
2021/09/26 01:57:09;;;;;;;14.32;8.40;;;18.70;96.90;;;;;;4995286;28;20286;-82
2021/09/26 01:59:36;;;;;;;14.30;8.05;;;18.70;96.90;;;;;;4995183;28;20185;-82
2021/09/26 02:02:02;;;;;;;16.63;8.90;;;18.60;97.20;;;;;;4995663;28;20638;-81
2021/09/26 02:04:29;;;;;;;21.23;9.27;;;18.60;97.30;;;;;;4995513;28;20185;-82
2021/09/26 02:06:56;;;;;;;16.15;9.57;;;18.60;97.20;;;;;;4995797;28;20680;-81
2021/09/26 02:09:22;;;;;;;14.82;8.77;;;18.60;97.40;;;;;;4995055;28;20171;-81
2021/09/26 02:11:50;;;;;;;24.38;9.65;;;18.60;97.30;;;;;;4994716;28;20176;-82
2021/09/26 02:14:17;;;;;;;16.63;9.30;;;18.60;97.40;;;;;;4994513;28;20174;-81
2021/09/26 02:16:43;;;;;;;17.42;9.65;;;18.50;97.70;;;;;;4994753;28;20663;-81
2021/09/26 02:19:11;;;;;;;18.25;10.40;;;18.50;97.80;;;;;;4994968;28;20710;-81
2021/09/26 02:21:38;;;;;;;16.35;9.65;;;18.40;97.90;;;;;;4994736;28;20290;-81
2021/09/26 02:24:05;;;;;;;21.02;10.07;;;18.40;98.00;;;;;;4994919;28;20587;-81
2021/09/26 02:26:34;;;;;;;15.77;9.63;;;18.40;98.00;;;;;;4994543;28;20214;-81
2021/09/26 02:29:00;;;;;;;19.17;10.25;;;18.40;98.00;;;;;;4995264;28;20644;-81
2021/09/26 02:31:26;;;;;;;16.13;8.90;;;18.40;98.10;;;;;;4994882;28;20178;-81
2021/09/26 02:33:52;;;;;;;19.23;10.73;;;18.40;98.10;;;;;;4994915;28;20833;-81
2021/09/26 02:36:19;;;;;;;15.80;9.97;;;18.40;98.20;;;;;;4952159;28;1263164;-81
2021/09/26 02:38:45;;;;;;;19.23;9.13;;;18.40;98.40;;;;;;4995782;28;20234;-81
2021/09/26 02:41:22;;;;;;;14.98;9.18;;;18.40;98.30;;;;;;4995524;28;20176;-81
2021/09/26 02:44:19;;;;;;;16.60;9.52;;;18.30;98.60;;;;;;4996601;28;20530;-81
2021/09/26 02:46:51;;;;;;;14.80;8.88;;;18.40;98.40;;;;;;4973013;28;20257;-81
2021/09/26 02:49:17;;;;;;;17.40;10.27;;;18.30;98.70;;;;;;4994832;28;20163;-81
2021/09/26 02:51:44;;;;;;;17.23;8.50;;;18.30;98.50;;;;;;4995477;28;20257;-81
2021/09/26 02:54:10;;;;;;;15.02;8.80;;;18.40;98.30;;;;;;4995166;28;20194;-81
2021/09/26 02:56:36;;;;;;;20.38;9.55;;;18.40;98.30;;;;;;4995070;28;20198;-81
2021/09/26 02:59:03;;;;;;;18.50;9.43;;;18.40;98.20;;;;;;4994884;28;20535;-82
2021/09/26 03:01:29;;;;;;;13.98;8.43;;;18.40;98.20;;;;;;4995181;28;20168;-81
2021/09/26 03:04:04;;;;;;;25.00;8.77;;;18.40;98.10;;;;;;4994942;28;20636;-81
2021/09/26 03:06:31;;;;;;;12.65;8.43;;;18.40;97.90;;;;;;4994659;28;20465;-81
2021/09/26 03:08:57;;;;;;;18.05;8.80;;;18.40;97.80;;;;;;4994831;28;20254;-81
2021/09/26 03:11:24;;;;;;;15.73;8.40;;;18.40;97.60;;;;;;4995022;28;20671;-81
2021/09/26 03:13:50;;;;;;;14.23;8.90;;;18.40;97.50;;;;;;4994499;28;20193;-82
2021/09/26 03:16:16;;;;;;;16.50;8.32;;;18.30;97.60;;;;;;4994529;28;20206;-82
2021/09/26 03:18:42;;;;;;;16.53;7.60;;;18.30;97.80;;;;;;4994621;28;20547;-82
2021/09/26 03:21:07;;;;;;;17.80;8.63;;;18.20;97.90;;;;;;4994979;28;20278;-82
2021/09/26 03:23:33;;;;;;;16.73;9.47;;;18.20;98.00;;;;;;4994369;28;20178;-81
2021/09/26 03:25:59;;;;;;;15.50;8.70;;;18.20;98.10;;;;;;4994267;28;20222;-81
2021/09/26 03:28:25;;;;;;;17.93;10.47;;;18.10;98.00;;;;;;4994087;28;20194;-81
2021/09/26 03:30:50;;;;;;;22.60;10.50;;;18.10;98.20;;;;;;4994297;28;20206;-82
2021/09/26 03:33:18;;;;;;;19.23;9.40;;;18.00;98.30;;;;;;4993937;28;20171;-81
2021/09/26 03:35:44;;;;;;;15.18;9.43;;;18.00;98.50;;;;;;4993974;28;20211;-81
2021/09/26 03:38:09;;;;;;;20.57;9.70;;;17.90;98.90;;;;;;4994408;28;20183;-81
2021/09/26 03:40:35;;;;;;;17.07;8.20;;;17.90;98.80;;;;;;4994034;28;20505;-81
2021/09/26 03:43:01;;;;;;;14.90;8.80;;;17.90;98.60;;;;;;4993953;28;20175;-81
2021/09/26 03:45:27;;;;;;;15.63;9.00;;;17.90;98.80;;;;;;4993759;28;20574;-81
2021/09/26 03:47:54;;;;;;;15.60;9.10;;;17.90;99.10;;;;;;4993952;28;20501;-81
2021/09/26 03:50:20;;;;;;;20.38;8.75;;;17.90;99.10;;;;;;4994466;28;20422;-82
2021/09/26 03:52:46;;;;;;;15.18;8.63;;;17.80;98.80;;;;;;4993855;28;20179;-81
2021/09/26 03:55:12;;;;;;;12.97;6.93;;;17.80;98.80;;;;;;4993552;28;20171;-81
2021/09/26 03:57:39;;;;;;;12.60;7.70;;;17.80;99.00;;;;;;4993981;28;20410;-81
2021/09/26 04:00:07;;;;;;;15.20;7.68;;;17.80;98.90;;;;;;4993877;28;20179;-81
2021/09/26 04:02:33;;;;;;;11.80;7.38;;;17.70;99.10;;;;;;4993753;28;20171;-81
2021/09/26 04:05:06;;;;;;;15.40;7.83;;;17.70;99.10;;;;;;4993189;28;20199;-81
2021/09/26 04:07:32;;;;;;;11.27;7.20;;;17.60;99.00;;;;;;4993364;28;20170;-82
2021/09/26 04:09:58;;;;;;;18.80;7.90;;;17.60;99.00;;;;;;4993506;28;20242;-81
2021/09/26 04:12:24;;;;;;;16.57;8.13;;;17.60;98.80;;;;;;4993484;28;20409;-81
2021/09/26 04:14:50;;;;;;;12.40;8.17;;;17.50;99.10;;;;;;4993693;28;20221;-81
2021/09/26 04:17:15;;;;;;;16.17;8.37;;;17.50;99.10;;;;;;4993340;28;20195;-81
2021/09/26 04:19:41;;;;;;;13.53;8.50;;;17.50;99.10;;;;;;4993910;28;20481;-81
2021/09/26 04:22:07;;;;;;;10.63;7.87;;;17.40;99.10;;;;;;4993832;28;20414;-82
2021/09/26 04:24:33;;;;;;;12.80;6.97;;;17.40;99.10;;;;;;4993463;28;20454;-81
2021/09/26 04:26:59;;;;;;;15.10;8.13;;;17.40;99.10;;;;;;4994045;28;20430;-83
2021/09/26 04:29:25;;;;;;;12.53;7.70;;;17.40;99.10;;;;;;4993772;28;20178;-81
2021/09/26 04:31:51;;;;;;;17.67;8.32;;;17.30;99.10;;;;;;4993663;28;20434;-82
2021/09/26 04:34:17;;;;;;;13.90;7.00;;;17.30;99.10;;;;;;4993526;28;20182;-82
2021/09/26 04:36:43;;;;;;;13.17;8.20;;;17.30;99.10;;;;;;4993061;28;20207;-82
2021/09/26 04:39:08;;;;;;;13.00;7.73;;;17.20;99.10;;;;;;4993776;28;20793;-82
2021/09/26 04:41:34;;;;;;;13.80;8.40;;;17.20;99.10;;;;;;4993796;28;20422;-82
2021/09/26 04:44:00;;;;;;;12.10;7.47;;;17.10;99.10;;;;;;4993267;28;20171;-81
2021/09/26 04:46:26;;;;;;;14.75;8.02;;;17.10;99.10;;;;;;4992853;28;20462;-82
2021/09/26 04:48:52;;;;;;;17.53;9.00;;;17.10;99.10;;;;;;4993078;28;20201;-82
2021/09/26 04:51:18;;;;;;;18.30;9.20;;;17.10;99.10;;;;;;4993047;28;20990;-80
2021/09/26 04:53:44;;;;;;;15.75;7.55;;;17.00;99.10;;;;;;4993159;28;20977;-81
2021/09/26 04:56:10;;;;;;;14.10;8.57;;;17.00;99.10;;;;;;4993239;28;20569;-81
2021/09/26 04:58:35;;;;;;;19.70;9.43;;;17.00;99.10;;;;;;4992989;28;20419;-80
2021/09/26 05:01:01;;;;;;;16.37;9.20;;;16.90;99.10;;;;;;4993225;28;20181;-81
2021/09/26 05:03:27;;;;;;;18.17;9.30;;;16.90;99.10;;;;;;4993100;28;20176;-81
2021/09/26 05:05:53;;;;;;;14.90;8.53;;;16.80;99.10;;;;;;4993262;28;20203;-81
2021/09/26 05:08:18;;;;;;;14.80;8.40;;;16.80;99.10;;;;;;4993084;28;20414;-81
2021/09/26 05:10:44;;;;;;;15.60;8.57;;;16.80;99.10;;;;;;4992988;28;20175;-81
2021/09/26 05:13:10;;;;;;;17.47;9.23;;;16.80;99.10;;;;;;4994143;28;20235;-81
2021/09/26 05:15:36;;;;;;;26.23;9.20;;;16.80;99.10;;;;;;4996643;28;20202;-81
2021/09/26 05:18:02;;;;;;;16.15;8.32;;;16.80;99.10;;;;;;4996551;28;20449;-81
2021/09/26 05:20:27;;;;;;;18.10;8.90;;;16.80;99.10;;;;;;4996670;28;20546;-81
2021/09/26 05:22:53;;;;;;;16.90;9.10;;;16.80;99.10;;;;;;4996551;28;20413;-81
2021/09/26 05:25:20;;;;;;;17.73;7.60;;;16.70;99.10;;;;;;4995983;28;20474;-81
2021/09/26 05:27:45;;;;;;;12.48;7.38;;;16.70;99.10;;;;;;4996479;28;20406;-81
2021/09/26 05:30:12;;;;;;;19.33;9.83;;;16.70;99.10;;;;;;4996442;28;20174;-81
2021/09/26 05:32:38;;;;;;;14.23;7.82;;;16.70;99.10;;;;;;4996759;28;20954;-81
2021/09/26 05:35:04;;;;;;;19.60;9.23;;;16.60;99.10;;;;;;4996221;28;20187;-81
2021/09/26 05:37:30;;;;;;;14.05;7.20;;;16.60;99.10;;;;;;4996412;28;20468;-81
2021/09/26 05:39:56;;;;;;;13.60;8.43;;;16.60;99.10;;;;;;4996719;28;20179;-81
2021/09/26 05:42:22;;;;;;;15.13;8.20;;;16.60;99.10;;;;;;4996543;28;20422;-81
2021/09/26 05:44:48;;;;;;;14.50;8.00;;;16.60;99.10;;;;;;4996172;28;20466;-81
2021/09/26 05:47:14;;;;;;;16.15;8.82;;;16.60;99.10;;;;;;4996633;28;20202;-81
2021/09/26 05:49:41;;;;;;;14.13;8.63;;;16.50;99.10;;;;;;4997619;28;20672;-81
2021/09/26 05:52:08;;;;;;;13.23;9.07;;;16.50;99.10;;;;;;4996680;28;20407;-81
2021/09/26 05:54:40;;;;;;;21.40;9.13;;;16.60;99.10;;;;;;4996515;28;20595;-80
2021/09/26 05:57:06;;;;;;;17.88;8.90;;;16.60;99.10;;;;;;4996778;28;20656;-81
2021/09/26 05:59:37;;;;;;;20.90;10.27;;;16.60;99.10;;;;;;4996151;28;20173;-81
2021/09/26 06:02:04;;;;;;;19.52;10.52;;;16.60;99.10;;;;;;4996260;28;20426;-81
2021/09/26 06:04:30;;;;;;;15.85;9.43;;;16.60;99.10;;;;;;4995811;28;20179;-81
2021/09/26 06:06:56;;;;;;;15.77;8.73;;;16.70;99.10;;;;;;4996470;28;20202;-81
2021/09/26 06:09:21;;;;;;;15.27;8.95;;;16.70;99.10;;;;;;4996268;28;20179;-81
2021/09/26 06:11:47;;;;;;;17.17;9.03;;;16.70;99.10;;;;;;4995946;28;20168;-81
2021/09/26 06:14:13;;;;;;;16.97;9.90;;;16.80;99.10;;;;;;4995514;28;20245;-81
2021/09/26 06:16:40;;;;;;;16.23;10.30;;;16.80;99.10;;;;;;4996036;28;20442;-81
2021/09/26 06:19:06;;;;;;;20.77;9.57;;;16.90;99.10;;;;;;4995828;28;20163;-81
2021/09/26 06:21:32;;;;;;;15.77;9.07;;;16.90;99.10;;;;;;4995892;28;20183;-81
2021/09/26 06:23:58;;;;;;;19.60;9.30;;;16.90;99.10;;;;;;4994960;28;20414;-81
2021/09/26 06:26:25;;;;;;;19.90;9.85;;;17.00;99.10;;;;;;4994586;28;20539;-81
2021/09/26 06:28:52;;;;;;;17.48;9.52;;;17.00;99.10;;;;;;4995466;28;20674;-81
2021/09/26 06:31:19;;;;;;;16.55;9.40;;;17.00;99.10;;;;;;4995559;28;20176;-81
2021/09/26 06:33:44;;;;;;;18.80;10.40;;;17.10;99.10;;;;;;4995173;28;20179;-81
2021/09/26 06:36:10;;;;;;;18.53;9.80;;;17.10;99.10;;;;;;4995575;28;20549;-81
2021/09/26 06:38:36;;;;;;;18.37;9.37;;;17.10;99.10;;;;;;4994603;28;20411;-81
2021/09/26 06:41:02;;;;;;;24.67;10.67;;;17.20;99.10;;;;;;4994228;28;20422;-80
2021/09/26 06:43:28;;;;;;;20.60;10.27;;;17.30;99.10;;;;;;4994253;28;20179;-80
2021/09/26 06:45:54;;;;;;;18.97;10.90;;;17.30;99.10;;;;;;4994382;28;20493;-80
2021/09/26 06:48:19;;;;;;;22.90;9.43;;;17.40;99.10;;;;;;4994069;28;20506;-80
2021/09/26 06:50:48;;;;;;;26.80;11.50;;;17.50;99.10;;;;;;4994459;28;20226;-81
2021/09/26 06:53:15;;;;;;;20.83;11.50;;;17.50;99.10;;;;;;4994381;28;20176;-81
2021/09/26 06:55:41;;;;;;;21.50;11.35;;;17.60;99.10;;;;;;4994371;28;20293;-81
2021/09/26 06:58:07;;;;;;;21.48;11.65;;;17.60;99.10;;;;;;4994044;28;20183;-81
2021/09/26 07:00:33;;;;;;;26.70;12.50;;;17.70;99.10;;;;;;4993884;28;20175;-81
2021/09/26 07:02:58;;;;;;;20.07;11.50;;;17.70;99.10;;;;;;4995211;28;20243;-80
2021/09/26 07:05:24;;;;;;;18.30;10.27;;;17.80;99.10;;;;;;4993487;28;20265;-81
2021/09/26 07:07:50;;;;;;;23.80;12.90;;;17.90;99.10;;;;;;4993682;28;20199;-81
2021/09/26 07:10:16;;;;;;;19.83;11.33;;;17.90;99.10;;;;;;4994297;28;20415;-81
2021/09/26 07:12:41;;;;;;;22.40;12.77;;;18.00;99.10;;;;;;4994343;28;20267;-81
2021/09/26 07:15:08;;;;;;;20.10;11.87;;;18.10;99.10;;;;;;4993408;28;20258;-80
2021/09/26 07:17:34;;;;;;;20.95;10.68;;;18.20;99.10;;;;;;4993641;28;20921;-81
2021/09/26 07:20:00;;;;;;;26.27;12.35;;;18.20;99.10;;;;;;4993691;28;20179;-81
2021/09/26 07:22:26;;;;;;;25.80;12.15;;;18.30;99.10;;;;;;4993907;28;20179;-81
2021/09/26 07:24:53;;;;;;;25.70;12.32;;;18.40;99.10;;;;;;4994012;28;20723;-81
2021/09/26 07:27:23;;;;;;;24.65;12.30;;;18.50;99.10;;;;;;4993947;28;20290;-81
2021/09/26 07:29:49;;;;;;;24.20;11.10;;;18.60;99.10;;;;;;4993840;28;20171;-81
2021/09/26 07:32:16;;;;;;;24.23;11.98;;;18.70;99.10;;;;;;4994035;28;20170;-82
2021/09/26 07:34:43;;;;;;;21.30;11.80;;;18.80;99.10;;;;;;4993908;28;20225;-81
2021/09/26 07:37:09;;;;;;;22.85;12.85;;;18.90;99.00;;;;;;4993615;28;20201;-82
2021/09/26 07:39:37;;;;;;;18.23;10.73;;;19.00;98.50;;;;;;4993976;28;20179;-82
2021/09/26 07:42:04;;;;;;;18.92;10.88;;;19.20;98.40;;;;;;4993594;28;20901;-82
2021/09/26 07:44:30;;;;;;;20.48;11.07;;;19.40;97.60;;;;;;4993680;28;20233;-81
2021/09/26 07:46:55;;;;;;;16.47;10.03;;;19.50;97.00;;;;;;4993800;28;20199;-82
2021/09/26 07:49:21;;;;;;;15.83;9.77;;;19.50;96.70;;;;;;4993531;28;20823;-82
2021/09/26 07:51:47;;;;;;;19.50;11.20;;;19.60;96.40;;;;;;4993138;28;20465;-83
2021/09/26 07:54:15;;;;;;;14.93;8.90;;;19.70;96.30;;;;;;4993684;28;20221;-82
2021/09/26 07:56:41;;;;;;;17.85;10.70;;;19.80;96.00;;;;;;4993446;28;20438;-82
2021/09/26 07:59:07;;;;;;;22.05;10.73;;;19.90;95.70;;;;;;4993578;28;20226;-82
2021/09/26 08:01:33;;;;;;;18.35;10.38;;;19.90;95.80;;;;;;4992993;28;20175;-83
2021/09/26 08:03:59;;;;;;;17.77;9.43;;;19.90;95.60;;;;;;4993469;28;20183;-82
2021/09/26 08:06:25;;;;;;;20.73;11.33;;;20.00;95.50;;;;;;4993106;28;20462;-83
2021/09/26 08:08:51;;;;;;;18.40;9.75;;;20.00;95.20;;;;;;4992803;28;20178;-83
2021/09/26 08:11:17;;;;;;;14.30;9.33;;;20.10;95.10;;;;;;4993046;28;20179;-83
2021/09/26 08:13:42;;;;;;;16.63;9.80;;;20.20;95.30;;;;;;4992870;28;20175;-82
2021/09/26 08:16:16;;;;;;;18.60;9.37;;;20.30;95.00;;;;;;4992912;28;20203;-82
2021/09/26 08:18:42;;;;;;;15.10;8.70;;;20.40;94.90;;;;;;4993327;28;20160;-80
2021/09/26 08:21:08;;;;;;;15.30;8.98;;;20.50;95.10;;;;;;4994199;28;20179;-80
2021/09/26 08:23:34;;;;;;;18.33;9.10;;;20.70;94.90;;;;;;4994889;28;20174;-79
2021/09/26 08:26:00;;;;;;;15.53;8.63;;;20.90;94.20;;;;;;4994835;28;20211;-79
2021/09/26 08:28:26;;;;;;;19.67;8.10;;;21.20;93.90;;;;;;4995265;28;20415;-79
2021/09/26 08:30:51;;;;;;;13.30;7.77;;;21.40;93.30;;;;;;4994626;28;20172;-78
2021/09/26 08:33:17;;;;;;;19.43;9.07;;;21.50;92.20;;;;;;4994083;28;20434;-79
2021/09/26 08:35:43;;;;;;;11.77;7.90;;;21.50;92.40;;;;;;4994015;28;20215;-79
2021/09/26 08:38:09;;;;;;;14.50;9.13;;;21.60;92.30;;;;;;4994077;28;20191;-77
2021/09/26 08:40:35;;;;;;;18.57;8.90;;;21.60;91.70;;;;;;4993877;28;20677;-78
2021/09/26 08:43:01;;;;;;;16.43;8.07;;;21.70;91.80;;;;;;4993779;28;20206;-78
2021/09/26 08:45:29;;;;;;;23.88;8.70;;;21.80;91.80;;;;;;4993521;28;20477;-78
2021/09/26 08:47:57;;;;;;;25.58;10.93;;;21.90;91.60;;;;;;4994704;28;20175;-78
2021/09/26 08:50:23;;;;;;;12.20;7.80;;;22.00;90.80;;;;;;4997687;28;20663;-78
2021/09/26 08:52:49;;;;;;;16.98;8.73;;;22.10;91.10;;;;;;4997669;28;20214;-78
2021/09/26 08:55:15;;;;;;;11.80;7.50;;;22.10;90.10;;;;;;4997360;28;20582;-78
2021/09/26 08:57:43;;;;;;;17.30;8.50;;;22.10;90.70;;;;;;4997368;28;20414;-76
2021/09/26 09:00:12;;;;;;;16.80;8.10;;;22.20;90.10;;;;;;4997652;28;20175;-78
2021/09/26 09:02:38;;;;;;;12.90;7.80;;;22.20;90.10;;;;;;4997354;28;20217;-79
2021/09/26 09:05:06;;;;;;;18.63;7.63;;;22.20;90.20;;;;;;4997520;28;20199;-78
2021/09/26 09:07:32;;;;;;;21.92;7.93;;;22.30;90.50;;;;;;4997398;28;20407;-78
2021/09/26 09:10:00;;;;;;;13.65;6.80;;;22.30;90.30;;;;;;4997356;28;20203;-79
2021/09/26 09:12:36;;;;;;;13.77;7.88;;;22.40;90.10;;;;;;4997399;28;20171;-79
2021/09/26 09:15:06;;;;;;;13.75;7.95;;;22.40;90.30;;;;;;4997795;28;20178;-78
2021/09/26 09:17:36;;;;;;;19.20;8.55;;;22.40;90.20;;;;;;4997601;28;20537;-78
2021/09/26 09:20:24;;;;;;;13.82;8.88;;;22.40;90.10;;;;;;4997331;28;20255;-79
2021/09/26 09:22:58;;;;;;;15.65;7.97;;;22.30;90.30;;;;;;4997884;28;20194;-78
2021/09/26 09:25:39;;;;;;;26.02;8.93;;;22.30;90.20;;;;;;4997305;28;20187;-79
2021/09/26 09:28:08;;;;;;;19.40;8.85;;;22.40;90.10;;;;;;4997644;28;20183;-78
2021/09/26 09:30:40;;;;;;;15.80;8.35;;;22.40;89.60;;;;;;4997084;28;20262;-79
2021/09/26 09:33:07;;;;;;;20.85;7.75;;;22.60;89.40;;;;;;4997218;28;20167;-78
2021/09/26 09:35:51;;;;;;;15.93;8.38;;;22.60;88.30;;;;;;4997245;28;20207;-79
2021/09/26 09:38:34;;;;;;;13.70;7.50;;;22.80;89.10;;;;;;4996550;28;20178;-77
2021/09/26 09:41:00;;;;;;;15.18;8.48;;;22.90;85.60;;;;;;4997256;28;20197;-78
2021/09/26 09:43:27;;;;;;;18.38;8.95;;;22.90;81.90;;;;;;4996671;28;20262;-77
2021/09/26 09:45:55;;;;;;;17.65;8.38;;;23.00;81.30;;;;;;4996643;28;20206;-78
2021/09/26 09:48:23;;;;;;;15.05;8.10;;;23.10;79.90;;;;;;4997201;28;20584;-78
2021/09/26 09:50:58;;;;;;;14.88;7.85;;;23.10;79.40;;;;;;4996810;28;20182;-79
2021/09/26 09:53:34;;;;;;;13.55;9.52;;;23.10;81.00;;;;;;4996972;28;20377;-79
2021/09/26 09:56:04;;;;;;;16.48;9.38;;;23.10;80.20;;;;;;4996514;28;20195;-78
2021/09/26 09:58:47;;;;;;;13.00;8.10;;;23.00;80.90;;;;;;4996773;28;20745;-78
2021/09/26 10:01:26;;;;;;;13.13;8.65;;;23.00;82.30;;;;;;4997062;28;20167;-78
2021/09/26 10:03:54;;;;;;;12.30;7.97;;;22.80;82.60;;;;;;4996651;28;20179;-78
2021/09/26 10:06:20;;;;;;;14.95;8.70;;;22.80;82.30;;;;;;4996824;28;20587;-79
2021/09/26 10:08:46;;;;;;;15.80;9.67;;;22.60;83.90;;;;;;4996272;28;20172;-79
2021/09/26 10:11:12;;;;;;;18.52;10.77;;;22.70;84.20;;;;;;4996715;28;20261;-79
2021/09/26 10:13:38;;;;;;;17.73;9.47;;;22.60;85.90;;;;;;4996978;28;20202;-78
2021/09/26 10:16:09;;;;;;;15.90;8.55;;;22.50;87.60;;;;;;4996910;28;20206;-79
2021/09/26 10:18:36;;;;;;;16.88;10.77;;;22.50;88.80;;;;;;4996540;28;20163;-79
2021/09/26 10:21:05;;;;;;;21.45;9.85;;;22.40;89.10;;;;;;4996582;28;20252;-79
2021/09/26 10:23:31;;;;;;;17.23;10.55;;;22.30;89.60;;;;;;4996727;28;20206;-78
2021/09/26 10:25:58;;;;;;;17.85;9.98;;;22.20;90.70;;;;;;4997052;28;20206;-79
2021/09/26 10:28:30;;;;;;;21.05;11.23;;;22.10;91.30;;;;;;4997413;28;20198;-79
2021/09/26 10:31:01;;;;;;;20.67;11.15;;;22.10;91.30;;;;;;4996732;28;20254;-81
2021/09/26 10:33:27;;;;;;;22.40;10.43;;;22.00;91.20;;;;;;4997171;28;20175;-79
2021/09/26 10:35:54;;;;;;;19.25;11.23;;;22.00;91.50;;;;;;4996498;28;20225;-78
2021/09/26 10:38:21;;;;;;;18.33;9.93;;;21.90;91.40;;;;;;4996436;28;20213;-78
2021/09/26 10:40:47;;;;;;;19.50;10.60;;;21.80;91.20;;;;;;4996508;28;20644;-79
2021/09/26 10:43:24;;;;;;;21.85;10.70;;;21.80;92.00;;;;;;4996273;28;20171;-79
2021/09/26 10:46:20;;;;;;;19.77;10.35;;;21.80;91.50;;;;;;4996178;28;20304;-78
2021/09/26 10:49:05;;;;;;;22.58;10.45;;;21.70;92.30;;;;;;4996201;28;20170;-78
2021/09/26 10:51:40;;;;;;;20.05;10.52;;;21.80;92.30;;;;;;4996811;28;20265;-79
2021/09/26 10:54:26;;;;;;;25.48;10.75;;;21.80;92.50;;;;;;4996428;28;20217;-79
2021/09/26 10:57:18;;;;;;;19.10;11.05;;;21.80;92.70;;;;;;4997148;28;20193;-79
2021/09/26 10:59:51;;;;;;;17.65;10.38;;;21.90;91.70;;;;;;4986784;28;20187;-79
2021/09/26 11:02:24;;;;;;;21.15;11.10;;;21.90;90.60;;;;;;4995694;28;20544;-79
2021/09/26 11:04:51;;;;;;;15.77;9.57;;;21.80;90.70;;;;;;4995982;28;20254;-79
2021/09/26 11:07:19;;;;;;;17.60;9.75;;;21.70;91.10;;;;;;4995703;28;20191;-79
2021/09/26 11:09:59;;;;;;;21.73;9.90;;;21.70;91.00;;;;;;4996093;28;20171;-78
2021/09/26 11:12:49;;;;;;;22.85;10.65;;;21.70;92.00;;;;;;4995404;28;20168;-79
2021/09/26 11:15:22;;;;;;;17.48;9.73;;;21.70;92.40;;;;;;4995601;28;20179;-79
2021/09/26 11:17:54;;;;;;;19.52;10.90;;;21.70;92.00;;;;;;4996140;28;20175;-79
2021/09/26 11:20:25;;;;;;;18.20;10.10;;;21.70;91.60;;;;;;4996374;28;20193;-79
2021/09/26 11:23:18;;;;;;;16.50;8.85;;;21.50;91.20;;;;;;4996623;28;20179;-79
2021/09/26 11:26:04;;;;;;;17.38;9.88;;;21.30;91.80;;;;;;4980754;28;20751;-82
2021/09/26 11:28:39;;;;;;;19.27;10.85;;;21.40;91.90;;;;;;4995194;28;20167;-79
2021/09/26 11:31:09;;;;;;;22.65;11.10;;;21.40;92.50;;;;;;4996035;28;20208;-79
2021/09/26 11:33:58;;;;;;;18.48;10.85;;;21.40;92.50;;;;;;4995974;28;20277;-79
2021/09/26 11:36:29;;;;;;;21.92;12.38;;;21.40;93.80;;;;;;4995853;28;20306;-79
2021/09/26 11:38:56;;;;;;;25.08;12.23;;;21.50;94.10;;;;;;4995334;28;20178;-79
2021/09/26 11:41:40;;;;;;;21.45;11.35;;;21.50;94.40;;;;;;4995172;28;20175;-78
2021/09/26 11:44:07;;;;;;;22.13;11.57;;;21.60;93.70;;;;;;4995478;28;20167;-79
2021/09/26 11:46:34;;;;;;;26.02;12.98;;;21.60;94.40;;;;;;4995503;28;20217;-78
2021/09/26 11:49:03;;;;;;;26.02;11.40;;;21.60;94.30;;;;;;4995176;28;20243;-79
2021/09/26 11:51:30;;;;;;;23.98;13.18;;;21.40;94.50;;;;;;4995251;28;20665;-80
2021/09/26 11:53:56;;;;;;;24.85;14.10;;;21.40;95.50;;;;;;4995351;28;20194;-78
2021/09/26 11:56:35;;;;;;;23.55;12.27;;;21.40;96.20;;;;;;4994940;28;20286;-80
2021/09/26 11:59:07;;;;;;;26.25;12.88;;;21.40;96.00;;;;;;4995273;28;20538;-79
2021/09/26 12:01:43;;;;;;;21.17;12.18;;;21.40;95.70;;;;;;4994930;28;20175;-79
2021/09/26 12:04:26;;;;;;;23.10;11.85;;;21.30;96.30;;;;;;4995622;28;20620;-79
2021/09/26 12:07:01;;;;;;;21.67;11.40;;;21.30;95.70;;;;;;4995392;28;20211;-79
2021/09/26 12:09:42;;;;;;;23.52;11.80;;;21.30;95.20;;;;;;4995367;28;20194;-79
2021/09/26 12:12:14;;;;;;;20.42;12.10;;;21.30;96.30;;;;;;4995255;28;20636;-79
2021/09/26 12:14:43;;;;;;;22.63;11.90;;;21.30;95.60;;;;;;4995064;28;20269;-79
2021/09/26 12:17:11;;;;;;;20.98;12.88;;;21.30;95.50;;;;;;4994710;28;20213;-79
2021/09/26 12:19:38;;;;;;;21.77;12.25;;;21.40;94.90;;;;;;4995132;28;20171;-79
2021/09/26 12:22:17;;;;;;;21.63;12.57;;;21.50;94.20;;;;;;4994455;28;20228;-79
2021/09/26 12:24:54;;;;;;;23.80;11.45;;;21.50;94.20;;;;;;4994516;28;20182;-79
2021/09/26 12:27:41;;;;;;;22.35;11.98;;;21.70;94.00;;;;;;4994684;28;20290;-78
2021/09/26 12:30:18;;;;;;;19.13;10.60;;;22.10;93.10;;;;;;4995105;28;20178;-78
2021/09/26 12:33:06;;;;;;;20.80;11.00;;;22.50;93.70;;;;;;4995504;28;20209;-79
2021/09/26 12:35:43;;;;;;;16.85;9.75;;;22.90;91.10;;;;;;4994836;28;20214;-79
2021/09/26 12:38:14;;;;;;;16.70;9.60;;;23.20;90.20;;;;;;4995565;28;20711;-79
2021/09/26 12:40:54;;;;;;;15.85;9.93;;;23.30;87.10;;;;;;4995390;28;20186;-79
2021/09/26 12:43:36;;;;;;;18.23;10.75;;;23.40;88.10;;;;;;4995709;28;20167;-79